ěÝzenÝ letovÚho provozu ╚eskÚ republiky
Letiste: LKKB Aktualizace: 19.01.2021 15:03:24  UTC
 SPECI LKKB 19.01. 15:01 ...
SPECI LKKB 191501Z 22018KT 3000 SN BKN020 OVC033 02/M01 Q1009 RMK YLO=
 TAF LKKB 19.01. 11:00 ...
TAF LKKB 191100Z 1912/2012 22016KT 9999 BKN035      BECMG 1912/1915 BKN020      TEMPO 1912/2010 23016G26KT      PROB30 TEMPO 1913/2006 24020G30KT      TEMPO 1914/1922 3000 RASN BR BKN008 OVC015      BECMG 2003/2006 CAVOK=